sensor_id;sensor_type;location;lat;lon;timestamp;pressure;altitude;pressure_sealevel;temperature;humidity
67697;BME280;54486;51.442;6.778;2023-07-09T00:01:52;101487.28;;;24.43;57.79
67697;BME280;54486;51.442;6.778;2023-07-09T00:04:20;101481.34;;;24.38;58.14
67697;BME280;54486;51.442;6.778;2023-07-09T00:06:51;101482.34;;;24.35;57.73
67697;BME280;54486;51.442;6.778;2023-07-09T00:09:21;101475.31;;;24.34;58.28
67697;BME280;54486;51.442;6.778;2023-07-09T00:11:49;101479.84;;;24.32;58.24
67697;BME280;54486;51.442;6.778;2023-07-09T00:14:17;101477.34;;;24.29;58.36
67697;BME280;54486;51.442;6.778;2023-07-09T00:16:45;101477.50;;;24.26;58.69
67697;BME280;54486;51.442;6.778;2023-07-09T00:19:18;101481.09;;;24.25;58.41
67697;BME280;54486;51.442;6.778;2023-07-09T00:21:48;101477.66;;;24.23;59.01
67697;BME280;54486;51.442;6.778;2023-07-09T00:24:16;101479.72;;;24.18;59.02
67697;BME280;54486;51.442;6.778;2023-07-09T00:26:43;101479.78;;;24.16;58.76
67697;BME280;54486;51.442;6.778;2023-07-09T00:29:12;101478.16;;;24.14;59.26
67697;BME280;54486;51.442;6.778;2023-07-09T00:31:41;101481.84;;;24.11;58.97
67697;BME280;54486;51.442;6.778;2023-07-09T00:34:12;101474.84;;;24.09;59.92
67697;BME280;54486;51.442;6.778;2023-07-09T00:36:41;101476.09;;;24.02;59.79
67697;BME280;54486;51.442;6.778;2023-07-09T00:39:20;101476.25;;;23.99;59.70
67697;BME280;54486;51.442;6.778;2023-07-09T00:41:48;101471.84;;;23.98;60.10
67697;BME280;54486;51.442;6.778;2023-07-09T00:49:36;101463.31;;;23.91;60.66
67697;BME280;54486;51.442;6.778;2023-07-09T00:52:22;101464.19;;;23.92;60.02
67697;BME280;54486;51.442;6.778;2023-07-09T00:54:52;101473.91;;;23.93;60.19
67697;BME280;54486;51.442;6.778;2023-07-09T00:57:23;101465.09;;;23.91;59.72
67697;BME280;54486;51.442;6.778;2023-07-09T00:59:56;101466.06;;;23.90;59.63
67697;BME280;54486;51.442;6.778;2023-07-09T01:02:26;101461.69;;;23.89;59.60
67697;BME280;54486;51.442;6.778;2023-07-09T01:04:57;101465.28;;;23.88;59.82
67697;BME280;54486;51.442;6.778;2023-07-09T01:07:28;101470.75;;;23.85;59.75
67697;BME280;54486;51.442;6.778;2023-07-09T01:09:55;101469.03;;;23.84;59.77
67697;BME280;54486;51.442;6.778;2023-07-09T01:12:23;101468.25;;;23.82;60.06
67697;BME280;54486;51.442;6.778;2023-07-09T01:14:53;101464.97;;;23.77;60.43
67697;BME280;54486;51.442;6.778;2023-07-09T01:17:21;101468.56;;;23.76;60.09
67697;BME280;54486;51.442;6.778;2023-07-09T01:19:50;101468.72;;;23.73;60.40
67697;BME280;54486;51.442;6.778;2023-07-09T01:22:18;101468.88;;;23.69;60.48
67697;BME280;54486;51.442;6.778;2023-07-09T01:27:23;101472.63;;;23.65;60.47
67697;BME280;54486;51.442;6.778;2023-07-09T01:29:50;101471.88;;;23.63;60.96
67697;BME280;54486;51.442;6.778;2023-07-09T01:32:19;101479.91;;;23.62;61.06
67697;BME280;54486;51.442;6.778;2023-07-09T01:34:49;101479.22;;;23.58;60.99
67697;BME280;54486;51.442;6.778;2023-07-09T01:37:25;101477.50;;;23.57;61.18
67697;BME280;54486;51.442;6.778;2023-07-09T01:39:53;101474.03;;;23.55;61.22
67697;BME280;54486;51.442;6.778;2023-07-09T01:42:24;101473.31;;;23.52;61.52
67697;BME280;54486;51.442;6.778;2023-07-09T01:44:53;101476.22;;;23.47;61.71
67697;BME280;54486;51.442;6.778;2023-07-09T01:47:21;101474.81;;;23.40;62.33
67697;BME280;54486;51.442;6.778;2023-07-09T01:49:51;101479.38;;;23.37;63.25
67697;BME280;54486;51.442;6.778;2023-07-09T01:52:26;101476.00;;;23.33;63.35
67697;BME280;54486;51.442;6.778;2023-07-09T01:54:55;101480.56;;;23.31;62.75
67697;BME280;54486;51.442;6.778;2023-07-09T01:57:26;101477.13;;;23.29;62.67
67697;BME280;54486;51.442;6.778;2023-07-09T02:00:11;101482.44;;;23.29;62.57
67697;BME280;54486;51.442;6.778;2023-07-09T02:02:42;101479.84;;;23.28;62.84
67697;BME280;54486;51.442;6.778;2023-07-09T02:05:18;101472.72;;;23.28;62.64
67697;BME280;54486;51.442;6.778;2023-07-09T02:07:45;101474.44;;;23.29;62.58
67697;BME280;54486;51.442;6.778;2023-07-09T02:10:15;101478.19;;;23.25;63.61
67697;BME280;54486;51.442;6.778;2023-07-09T02:12:43;101476.47;;;23.24;63.65
67697;BME280;54486;51.442;6.778;2023-07-09T02:15:11;101481.88;;;23.23;63.17
67697;BME280;54486;51.442;6.778;2023-07-09T02:17:38;101481.00;;;23.22;63.59
67697;BME280;54486;51.442;6.778;2023-07-09T02:20:07;101476.69;;;23.19;63.52
67697;BME280;54486;51.442;6.778;2023-07-09T02:22:34;101479.56;;;23.15;63.92
67697;BME280;54486;51.442;6.778;2023-07-09T02:25:03;101482.38;;;23.12;64.16
67697;BME280;54486;51.442;6.778;2023-07-09T02:27:30;101481.75;;;23.07;64.92
67697;BME280;54486;51.442;6.778;2023-07-09T02:29:58;101476.53;;;23.04;64.89
67697;BME280;54486;51.442;6.778;2023-07-09T02:32:26;101483.75;;;23.02;65.65
67697;BME280;54486;51.442;6.778;2023-07-09T02:34:55;101479.59;;;22.96;65.67
67697;BME280;54486;51.442;6.778;2023-07-09T02:37:25;101477.13;;;22.92;65.56
67697;BME280;54486;51.442;6.778;2023-07-09T02:39:53;101484.34;;;22.90;66.66
67697;BME280;54486;51.442;6.778;2023-07-09T02:42:22;101484.41;;;22.88;66.31
67697;BME280;54486;51.442;6.778;2023-07-09T02:44:49;101482.75;;;22.86;66.63
67697;BME280;54486;51.442;6.778;2023-07-09T02:47:17;101490.09;;;22.81;67.77
67697;BME280;54486;51.442;6.778;2023-07-09T02:49:45;101490.25;;;22.78;67.07
67697;BME280;54486;51.442;6.778;2023-07-09T02:52:12;101493.81;;;22.77;67.03
67697;BME280;54486;51.442;6.778;2023-07-09T02:54:39;101494.69;;;22.77;66.81
67697;BME280;54486;51.442;6.778;2023-07-09T02:57:06;101501.03;;;22.75;67.39
67697;BME280;54486;51.442;6.778;2023-07-09T02:59:34;101500.22;;;22.73;67.19
67697;BME280;54486;51.442;6.778;2023-07-09T03:02:02;101498.44;;;22.73;67.63
67697;BME280;54486;51.442;6.778;2023-07-09T03:04:31;101503.03;;;22.70;67.28
67697;BME280;54486;51.442;6.778;2023-07-09T03:06:59;101496.00;;;22.69;67.72
67697;BME280;54486;51.442;6.778;2023-07-09T03:09:29;101501.44;;;22.65;67.74
67697;BME280;54486;51.442;6.778;2023-07-09T03:11:56;101497.94;;;22.63;67.57
67697;BME280;54486;51.442;6.778;2023-07-09T03:14:24;101501.53;;;22.62;67.90
67697;BME280;54486;51.442;6.778;2023-07-09T03:16:51;101498.03;;;22.62;68.41
67697;BME280;54486;51.442;6.778;2023-07-09T03:19:18;101499.03;;;22.59;68.14
67697;BME280;54486;51.442;6.778;2023-07-09T03:21:45;101505.28;;;22.58;68.23
67697;BME280;54486;51.442;6.778;2023-07-09T03:24:12;101507.13;;;22.56;68.32
67697;BME280;54486;51.442;6.778;2023-07-09T03:26:42;101511.69;;;22.54;68.55
67697;BME280;54486;51.442;6.778;2023-07-09T03:29:09;101504.63;;;22.53;68.43
67697;BME280;54486;51.442;6.778;2023-07-09T03:31:36;101510.94;;;22.51;69.03
67697;BME280;54486;51.442;6.778;2023-07-09T03:34:03;101515.41;;;22.50;68.87
67697;BME280;54486;51.442;6.778;2023-07-09T03:36:30;101521.69;;;22.49;69.28
67697;BME280;54486;51.442;6.778;2023-07-09T03:38:57;101521.59;;;22.51;69.12
67697;BME280;54486;51.442;6.778;2023-07-09T03:41:25;101522.47;;;22.51;68.64
67697;BME280;54486;51.442;6.778;2023-07-09T03:43:52;101524.25;;;22.51;68.99
67697;BME280;54486;51.442;6.778;2023-07-09T03:46:21;101528.69;;;22.50;69.01
67697;BME280;54486;51.442;6.778;2023-07-09T03:48:48;101526.84;;;22.52;68.99
67697;BME280;54486;51.442;6.778;2023-07-09T03:51:17;101526.00;;;22.52;68.64
67697;BME280;54486;51.442;6.778;2023-07-09T03:53:44;101529.53;;;22.52;68.74
67697;BME280;54486;51.442;6.778;2023-07-09T03:56:11;101532.19;;;22.52;68.73
67697;BME280;54486;51.442;6.778;2023-07-09T03:58:38;101527.69;;;22.53;68.56
67697;BME280;54486;51.442;6.778;2023-07-09T04:01:05;101533.00;;;22.53;68.54
67697;BME280;54486;51.442;6.778;2023-07-09T04:03:32;101538.34;;;22.53;69.25
67697;BME280;54486;51.442;6.778;2023-07-09T04:06:00;101535.75;;;22.51;68.72
67697;BME280;54486;51.442;6.778;2023-07-09T04:08:28;101531.22;;;22.53;68.32
67697;BME280;54486;51.442;6.778;2023-07-09T04:10:59;101535.63;;;22.54;68.83
67697;BME280;54486;51.442;6.778;2023-07-09T04:13:26;101539.06;;;22.56;68.59
67697;BME280;54486;51.442;6.778;2023-07-09T04:15:56;101529.25;;;22.58;68.76
67697;BME280;54486;51.442;6.778;2023-07-09T04:18:23;101528.28;;;22.59;69.26
67697;BME280;54486;51.442;6.778;2023-07-09T04:20:51;101530.03;;;22.60;69.73
67697;BME280;54486;51.442;6.778;2023-07-09T04:23:19;101528.16;;;22.62;70.17
67697;BME280;54486;51.442;6.778;2023-07-09T04:25:46;101522.81;;;22.62;69.64
67697;BME280;54486;51.442;6.778;2023-07-09T04:28:14;101528.09;;;22.64;69.33
67697;BME280;54486;51.442;6.778;2023-07-09T04:30:49;101536.94;;;22.64;70.58
67697;BME280;54486;51.442;6.778;2023-07-09T04:33:18;101534.22;;;22.66;69.89
67697;BME280;54486;51.442;6.778;2023-07-09T04:35:46;101531.50;;;22.67;69.91
67697;BME280;54486;51.442;6.778;2023-07-09T04:38:14;101527.94;;;22.69;69.29
67697;BME280;54486;51.442;6.778;2023-07-09T04:40:42;101520.72;;;22.71;69.41
67697;BME280;54486;51.442;6.778;2023-07-09T04:43:09;101529.50;;;22.73;69.44
67697;BME280;54486;51.442;6.778;2023-07-09T04:45:36;101522.31;;;22.75;69.06
67697;BME280;54486;51.442;6.778;2023-07-09T04:48:03;101524.84;;;22.78;68.87
67697;BME280;54486;51.442;6.778;2023-07-09T04:50:31;101522.03;;;22.81;68.74
67697;BME280;54486;51.442;6.778;2023-07-09T04:52:59;101528.00;;;22.86;68.81
67697;BME280;54486;51.442;6.778;2023-07-09T04:55:26;101528.66;;;22.91;68.00
67697;BME280;54486;51.442;6.778;2023-07-09T04:57:53;101528.53;;;22.94;68.23
67697;BME280;54486;51.442;6.778;2023-07-09T05:00:21;101530.09;;;22.98;68.41
67697;BME280;54486;51.442;6.778;2023-07-09T05:02:48;101542.31;;;23.02;66.87
67697;BME280;54486;51.442;6.778;2023-07-09T05:05:15;101535.00;;;23.07;67.23
67697;BME280;54486;51.442;6.778;2023-07-09T05:07:43;101533.84;;;23.12;67.31
67697;BME280;54486;51.442;6.778;2023-07-09T05:10:10;101532.81;;;23.15;67.46
67697;BME280;54486;51.442;6.778;2023-07-09T05:12:50;101538.78;;;23.20;66.88
67697;BME280;54486;51.442;6.778;2023-07-09T05:15:19;101543.03;;;23.24;66.88
67697;BME280;54486;51.442;6.778;2023-07-09T05:17:46;101542.88;;;23.27;66.72
67697;BME280;54486;51.442;6.778;2023-07-09T05:20:15;101535.56;;;23.32;66.89
67697;BME280;54486;51.442;6.778;2023-07-09T05:22:42;101525.59;;;23.36;66.09
67697;BME280;54486;51.442;6.778;2023-07-09T05:25:09;101536.84;;;23.42;66.46
67697;BME280;54486;51.442;6.778;2023-07-09T05:27:37;101534.03;;;23.45;66.33
67697;BME280;54486;51.442;6.778;2023-07-09T05:30:04;101531.25;;;23.48;65.88
67697;BME280;54486;51.442;6.778;2023-07-09T05:32:32;101532.81;;;23.52;65.78
67697;BME280;54486;51.442;6.778;2023-07-09T05:34:59;101529.06;;;23.56;66.05
67697;BME280;54486;51.442;6.778;2023-07-09T05:37:26;101525.31;;;23.60;65.36
67697;BME280;54486;51.442;6.778;2023-07-09T05:39:53;101535.66;;;23.66;65.63
67697;BME280;54486;51.442;6.778;2023-07-09T05:42:20;101526.59;;;23.70;66.60
67697;BME280;54486;51.442;6.778;2023-07-09T05:44:48;101531.63;;;23.77;65.82
67697;BME280;54486;51.442;6.778;2023-07-09T05:47:15;101533.00;;;23.84;65.95
67697;BME280;54486;51.442;6.778;2023-07-09T05:49:42;101530.22;;;23.87;65.71
67697;BME280;54486;51.442;6.778;2023-07-09T05:52:09;101536.16;;;23.92;65.55
67697;BME280;54486;51.442;6.778;2023-07-09T05:54:36;101539.44;;;23.97;65.19
67697;BME280;54486;51.442;6.778;2023-07-09T05:57:04;101542.75;;;24.02;65.36
67697;BME280;54486;51.442;6.778;2023-07-09T05:59:32;101539.00;;;24.06;65.07
67697;BME280;54486;51.442;6.778;2023-07-09T06:01:59;101542.28;;;24.11;65.27
67697;BME280;54486;51.442;6.778;2023-07-09T06:04:28;101542.94;;;24.16;65.55
67697;BME280;54486;51.442;6.778;2023-07-09T06:06:57;101542.72;;;24.20;65.54
67697;BME280;54486;51.442;6.778;2023-07-09T06:09:24;101546.94;;;24.25;65.06
67697;BME280;54486;51.442;6.778;2023-07-09T06:11:52;101542.16;;;24.31;64.82
67697;BME280;54486;51.442;6.778;2023-07-09T06:14:19;101537.44;;;24.36;64.24
67697;BME280;54486;51.442;6.778;2023-07-09T06:16:47;101548.53;;;24.44;64.13
67697;BME280;54486;51.442;6.778;2023-07-09T06:19:14;101547.28;;;24.51;64.41
67697;BME280;54486;51.442;6.778;2023-07-09T06:21:41;101550.44;;;24.59;64.05
67697;BME280;54486;51.442;6.778;2023-07-09T06:24:08;101544.94;;;24.62;63.58
67697;BME280;54486;51.442;6.778;2023-07-09T06:26:36;101552.59;;;24.68;63.71
67697;BME280;54486;51.442;6.778;2023-07-09T06:29:03;101543.31;;;24.75;63.28
67697;BME280;54486;51.442;6.778;2023-07-09T06:31:31;101544.88;;;24.80;63.28
67697;BME280;54486;51.442;6.778;2023-07-09T06:34:03;101544.66;;;24.84;63.55
67697;BME280;54486;51.442;6.778;2023-07-09T06:36:30;101543.47;;;24.90;62.39
67697;BME280;54486;51.442;6.778;2023-07-09T06:38:57;101546.59;;;24.98;62.37
67697;BME280;54486;51.442;6.778;2023-07-09T06:41:25;101547.88;;;25.06;61.80
67697;BME280;54486;51.442;6.778;2023-07-09T06:43:52;101552.97;;;25.11;61.56
67697;BME280;54486;51.442;6.778;2023-07-09T06:46:19;101552.47;;;25.20;62.13
67697;BME280;54486;51.442;6.778;2023-07-09T06:48:46;101550.38;;;25.25;61.08
67697;BME280;54486;51.442;6.778;2023-07-09T06:51:13;101551.59;;;25.35;60.40
67697;BME280;54486;51.442;6.778;2023-07-09T06:53:41;101549.19;;;25.46;60.29
67697;BME280;54486;51.442;6.778;2023-07-09T06:56:10;101550.91;;;25.63;61.14
67697;BME280;54486;51.442;6.778;2023-07-09T06:58:38;101559.72;;;25.65;60.48
67697;BME280;54486;51.442;6.778;2023-07-09T07:01:05;101556.75;;;25.69;60.55
67697;BME280;54486;51.442;6.778;2023-07-09T07:03:33;101557.19;;;25.77;60.79
67697;BME280;54486;51.442;6.778;2023-07-09T07:06:01;101552.25;;;25.86;59.31
67697;BME280;54486;51.442;6.778;2023-07-09T07:08:29;101558.97;;;25.93;59.74
67697;BME280;54486;51.442;6.778;2023-07-09T07:10:58;101551.53;;;25.98;59.44
67697;BME280;54486;51.442;6.778;2023-07-09T07:13:36;101553.81;;;26.04;59.76
67697;BME280;54486;51.442;6.778;2023-07-09T07:16:06;101550.81;;;26.10;60.26
67697;BME280;54486;51.442;6.778;2023-07-09T07:18:34;101555.84;;;26.16;59.83
67697;BME280;54486;51.442;6.778;2023-07-09T07:21:02;101553.53;;;26.24;59.37
67697;BME280;54486;51.442;6.778;2023-07-09T07:23:29;101547.63;;;26.33;59.20
67697;BME280;54486;51.442;6.778;2023-07-09T07:25:57;101543.63;;;26.40;58.92
67697;BME280;54486;51.442;6.778;2023-07-09T07:28:25;101541.56;;;26.45;58.76
67697;BME280;54486;51.442;6.778;2023-07-09T07:31:05;101534.09;;;26.50;58.52
67697;BME280;54486;51.442;6.778;2023-07-09T07:33:35;101539.06;;;26.56;59.07
67697;BME280;54486;51.442;6.778;2023-07-09T07:36:06;101531.50;;;26.63;59.38
67697;BME280;54486;51.442;6.778;2023-07-09T07:38:36;101531.88;;;26.71;59.30
67697;BME280;54486;51.442;6.778;2023-07-09T07:41:04;101531.84;;;26.87;58.61
67697;BME280;54486;51.442;6.778;2023-07-09T07:43:32;101534.69;;;26.98;57.94
67697;BME280;54486;51.442;6.778;2023-07-09T07:45:59;101537.75;;;27.06;57.04
67697;BME280;54486;51.442;6.778;2023-07-09T07:48:27;101533.50;;;27.16;57.16
67697;BME280;54486;51.442;6.778;2023-07-09T07:51:01;101537.41;;;27.24;57.41
67697;BME280;54486;51.442;6.778;2023-07-09T07:53:29;101538.09;;;27.28;56.93
67697;BME280;54486;51.442;6.778;2023-07-09T07:55:57;101535.00;;;27.34;56.78
67697;BME280;54486;51.442;6.778;2023-07-09T07:58:24;101533.63;;;27.41;58.23
67697;BME280;54486;51.442;6.778;2023-07-09T08:00:58;101532.41;;;27.47;57.05
67697;BME280;54486;51.442;6.778;2023-07-09T08:03:26;101531.13;;;27.52;57.56
67697;BME280;54486;51.442;6.778;2023-07-09T08:05:53;101533.94;;;27.63;56.98
67697;BME280;54486;51.442;6.778;2023-07-09T08:08:20;101533.38;;;27.72;56.72
67697;BME280;54486;51.442;6.778;2023-07-09T08:10:49;101525.66;;;27.80;55.64
67697;BME280;54486;51.442;6.778;2023-07-09T08:13:18;101525.03;;;27.90;54.63
67697;BME280;54486;51.442;6.778;2023-07-09T08:15:46;101520.22;;;27.95;55.59
67697;BME280;54486;51.442;6.778;2023-07-09T08:18:14;101522.28;;;28.04;56.12
67697;BME280;54486;51.442;6.778;2023-07-09T08:20:44;101525.09;;;28.15;55.63
67697;BME280;54486;51.442;6.778;2023-07-09T08:23:11;101522.97;;;28.20;55.69
67697;BME280;54486;51.442;6.778;2023-07-09T08:25:38;101520.59;;;28.28;55.28
67697;BME280;54486;51.442;6.778;2023-07-09T08:28:06;101518.56;;;28.31;54.91
67697;BME280;54486;51.442;6.778;2023-07-09T08:30:33;101512.13;;;28.34;55.19
67697;BME280;54486;51.442;6.778;2023-07-09T08:33:01;101526.84;;;28.41;55.67
67697;BME280;54486;51.442;6.778;2023-07-09T08:35:28;101511.59;;;28.54;55.88
67697;BME280;54486;51.442;6.778;2023-07-09T08:38:02;101505.56;;;28.63;55.51
67697;BME280;54486;51.442;6.778;2023-07-09T08:40:30;101501.50;;;28.70;54.83
67697;BME280;54486;51.442;6.778;2023-07-09T08:43:15;101503.31;;;28.82;54.80
67697;BME280;54486;51.442;6.778;2023-07-09T08:45:53;101508.78;;;28.94;53.80
67697;BME280;54486;51.442;6.778;2023-07-09T08:48:34;101510.78;;;29.03;52.97
67697;BME280;54486;51.442;6.778;2023-07-09T08:51:09;101507.44;;;29.12;51.74
67697;BME280;54486;51.442;6.778;2023-07-09T08:53:42;101486.34;;;29.18;51.60
67697;BME280;54486;51.442;6.778;2023-07-09T08:56:13;101497.06;;;29.31;51.62
67697;BME280;54486;51.442;6.778;2023-07-09T08:58:40;101500.50;;;29.33;51.82
67697;BME280;54486;51.442;6.778;2023-07-09T09:01:36;101497.88;;;29.44;50.81
67697;BME280;54486;51.442;6.778;2023-07-09T09:04:14;101495.44;;;29.52;50.74
67697;BME280;54486;51.442;6.778;2023-07-09T09:06:48;101494.25;;;29.56;51.33
67697;BME280;54486;51.442;6.778;2023-07-09T09:09:28;101498.69;;;29.57;49.05
67697;BME280;54486;51.442;6.778;2023-07-09T09:12:04;101501.13;;;29.60;48.87
67697;BME280;54486;51.442;6.778;2023-07-09T09:14:39;101501.41;;;29.68;49.34
67697;BME280;54486;51.442;6.778;2023-07-09T09:17:13;101491.25;;;29.72;49.32
67697;BME280;54486;51.442;6.778;2023-07-09T09:20:02;101487.38;;;29.76;48.95
67697;BME280;54486;51.442;6.778;2023-07-09T09:22:44;101494.03;;;29.83;48.45
67697;BME280;54486;51.442;6.778;2023-07-09T09:25:24;101487.47;;;29.98;46.88
67697;BME280;54486;51.442;6.778;2023-07-09T09:27:54;101484.19;;;30.06;46.45
67697;BME280;54486;51.442;6.778;2023-07-09T09:30:23;101482.50;;;30.27;46.25
67697;BME280;54486;51.442;6.778;2023-07-09T09:33:09;101476.38;;;30.36;46.42
67697;BME280;54486;51.442;6.778;2023-07-09T09:35:41;101476.44;;;30.47;45.31
67697;BME280;54486;51.442;6.778;2023-07-09T09:38:13;101472.03;;;30.46;44.91
67697;BME280;54486;51.442;6.778;2023-07-09T09:40:40;101473.00;;;30.56;44.49
67697;BME280;54486;51.442;6.778;2023-07-09T09:43:16;101477.66;;;30.65;43.72
67697;BME280;54486;51.442;6.778;2023-07-09T09:45:50;101470.56;;;30.75;43.47
67697;BME280;54486;51.442;6.778;2023-07-09T09:48:27;101464.88;;;30.89;43.13
67697;BME280;54486;51.442;6.778;2023-07-09T09:50:55;101462.81;;;31.04;42.30
67697;BME280;54486;51.442;6.778;2023-07-09T09:53:27;101467.09;;;31.07;42.33
67697;BME280;54486;51.442;6.778;2023-07-09T09:55:56;101469.19;;;31.14;41.42
67697;BME280;54486;51.442;6.778;2023-07-09T09:58:32;101474.88;;;31.21;41.30
67697;BME280;54486;51.442;6.778;2023-07-09T10:00:59;101480.53;;;31.18;41.85
67697;BME280;54486;51.442;6.778;2023-07-09T10:03:35;101468.66;;;31.20;41.60
67697;BME280;54486;51.442;6.778;2023-07-09T10:06:07;101470.44;;;31.31;41.40
67697;BME280;54486;51.442;6.778;2023-07-09T10:08:54;101464.28;;;31.40;40.94
67697;BME280;54486;51.442;6.778;2023-07-09T10:11:47;101469.69;;;31.51;41.53
67697;BME280;54486;51.442;6.778;2023-07-09T10:17:20;101459.16;;;31.69;39.71
67697;BME280;54486;51.442;6.778;2023-07-09T10:19:57;101450.16;;;31.79;39.46
67697;BME280;54486;51.442;6.778;2023-07-09T10:22:53;101442.53;;;31.84;38.28
67697;BME280;54486;51.442;6.778;2023-07-09T10:25:44;101443.25;;;31.86;38.65
67697;BME280;54486;51.442;6.778;2023-07-09T10:34:14;101440.44;;;31.97;40.33
67697;BME280;54486;51.442;6.778;2023-07-09T10:39:21;101442.06;;;32.00;39.86
67697;BME280;54486;51.442;6.778;2023-07-09T10:41:50;101450.78;;;32.04;40.15
67697;BME280;54486;51.442;6.778;2023-07-09T10:44:44;101453.50;;;32.04;39.77
67697;BME280;54486;51.442;6.778;2023-07-09T10:47:30;101455.22;;;32.14;40.20
67697;BME280;54486;51.442;6.778;2023-07-09T10:50:00;101446.19;;;32.25;39.95
67697;BME280;54486;51.442;6.778;2023-07-09T10:52:32;101440.13;;;32.32;37.61
67697;BME280;54486;51.442;6.778;2023-07-09T10:55:16;101452.34;;;32.57;37.30
67697;BME280;54486;51.442;6.778;2023-07-09T10:57:58;101450.81;;;32.64;36.90
67697;BME280;54486;51.442;6.778;2023-07-09T11:00:37;101444.13;;;32.68;36.00
67697;BME280;54486;51.442;6.778;2023-07-09T11:03:16;101435.63;;;32.82;35.89
67697;BME280;54486;51.442;6.778;2023-07-09T11:05:46;101439.94;;;32.94;35.59
67697;BME280;54486;51.442;6.778;2023-07-09T11:08:20;101440.63;;;32.96;36.55
67697;BME280;54486;51.442;6.778;2023-07-09T11:10:55;101434.59;;;33.14;36.36
67697;BME280;54486;51.442;6.778;2023-07-09T11:13:45;101419.50;;;33.21;36.58
67697;BME280;54486;51.442;6.778;2023-07-09T11:16:32;101418.66;;;33.30;36.69
67697;BME280;54486;51.442;6.778;2023-07-09T11:19:04;101418.78;;;33.38;37.37
67697;BME280;54486;51.442;6.778;2023-07-09T11:21:33;101398.72;;;33.40;35.36
67697;BME280;54486;51.442;6.778;2023-07-09T11:24:04;101396.59;;;33.44;36.15
67697;BME280;54486;51.442;6.778;2023-07-09T11:26:34;101395.41;;;33.56;37.36
67697;BME280;54486;51.442;6.778;2023-07-09T11:31:40;101385.00;;;33.80;36.80
67697;BME280;54486;51.442;6.778;2023-07-09T11:34:08;101382.28;;;33.80;36.28
67697;BME280;54486;51.442;6.778;2023-07-09T11:39:20;101370.97;;;34.04;36.09
67697;BME280;54486;51.442;6.778;2023-07-09T11:41:48;101377.06;;;34.16;36.15
67697;BME280;54486;51.442;6.778;2023-07-09T11:44:18;101380.28;;;34.29;35.53
67697;BME280;54486;51.442;6.778;2023-07-09T11:52:32;101384.72;;;34.57;35.31
67697;BME280;54486;51.442;6.778;2023-07-09T11:57:53;101379.00;;;34.60;34.26
67697;BME280;54486;51.442;6.778;2023-07-09T12:00:20;101380.13;;;34.67;35.11
67697;BME280;54486;51.442;6.778;2023-07-09T12:02:48;101390.28;;;34.83;35.09
67697;BME280;54486;51.442;6.778;2023-07-09T12:05:19;101394.34;;;34.96;34.56
67697;BME280;54486;51.442;6.778;2023-07-09T12:07:47;101394.72;;;35.01;32.98
67697;BME280;54486;51.442;6.778;2023-07-09T12:10:20;101385.59;;;35.02;32.42
67697;BME280;54486;51.442;6.778;2023-07-09T12:12:48;101391.09;;;35.11;32.15
67697;BME280;54486;51.442;6.778;2023-07-09T12:15:21;101391.56;;;35.24;32.17
67697;BME280;54486;51.442;6.778;2023-07-09T12:18:00;101389.00;;;35.40;32.78
67697;BME280;54486;51.442;6.778;2023-07-09T12:20:31;101388.13;;;35.57;31.36
67697;BME280;54486;51.442;6.778;2023-07-09T12:22:58;101392.00;;;35.72;31.85
67697;BME280;54486;51.442;6.778;2023-07-09T12:25:28;101392.91;;;35.81;30.68
67697;BME280;54486;51.442;6.778;2023-07-09T12:27:58;101392.78;;;35.90;30.04
67697;BME280;54486;51.442;6.778;2023-07-09T12:30:27;101380.88;;;35.83;29.82
67697;BME280;54486;51.442;6.778;2023-07-09T12:32:54;101372.22;;;36.05;30.53
67697;BME280;54486;51.442;6.778;2023-07-09T12:35:22;101368.84;;;36.12;31.44
67697;BME280;54486;51.442;6.778;2023-07-09T12:37:50;101366.88;;;36.22;31.92
67697;BME280;54486;51.442;6.778;2023-07-09T12:40:22;101361.13;;;36.33;30.62
67697;BME280;54486;51.442;6.778;2023-07-09T12:42:52;101355.34;;;36.36;30.18
67697;BME280;54486;51.442;6.778;2023-07-09T12:45:20;101357.31;;;36.18;30.32
67697;BME280;54486;51.442;6.778;2023-07-09T12:47:48;101356.34;;;36.27;31.71
67697;BME280;54486;51.442;6.778;2023-07-09T12:50:29;101354.63;;;36.26;31.33
67697;BME280;54486;51.442;6.778;2023-07-09T12:53:02;101354.97;;;36.23;33.16
67697;BME280;54486;51.442;6.778;2023-07-09T12:55:36;101355.25;;;36.12;31.85
67697;BME280;54486;51.442;6.778;2023-07-09T12:58:09;101354.88;;;36.06;31.70
67697;BME280;54486;51.442;6.778;2023-07-09T13:00:37;101348.38;;;35.99;32.36
67697;BME280;54486;51.442;6.778;2023-07-09T13:03:13;101340.50;;;35.88;32.87
67697;BME280;54486;51.442;6.778;2023-07-09T13:06:00;101330.59;;;35.79;33.04
67697;BME280;54486;51.442;6.778;2023-07-09T13:08:30;101330.84;;;35.68;33.06
67697;BME280;54486;51.442;6.778;2023-07-09T13:10:59;101324.53;;;35.60;32.55
67697;BME280;54486;51.442;6.778;2023-07-09T13:13:27;101327.63;;;35.47;32.66
67697;BME280;54486;51.442;6.778;2023-07-09T13:16:01;101319.91;;;35.34;35.00
67697;BME280;54486;51.442;6.778;2023-07-09T13:18:29;101329.78;;;35.18;32.88
67697;BME280;54486;51.442;6.778;2023-07-09T13:20:58;101334.41;;;35.07;33.29
67697;BME280;54486;51.442;6.778;2023-07-09T13:23:28;101325.13;;;34.92;34.04
67697;BME280;54486;51.442;6.778;2023-07-09T13:25:56;101305.66;;;34.79;33.83
67697;BME280;54486;51.442;6.778;2023-07-09T13:28:30;101284.84;;;34.62;35.29
67697;BME280;54486;51.442;6.778;2023-07-09T13:30:59;101289.03;;;34.47;35.89
67697;BME280;54486;51.442;6.778;2023-07-09T13:33:28;101282.03;;;34.27;36.44
67697;BME280;54486;51.442;6.778;2023-07-09T13:35:55;101297.34;;;34.09;36.86
67697;BME280;54486;51.442;6.778;2023-07-09T13:38:23;101308.16;;;33.91;37.61
67697;BME280;54486;51.442;6.778;2023-07-09T13:40:54;101322.03;;;33.59;40.91